sensor_id;sensor_type;location;lat;lon;timestamp;temperature;humidity
18105;DHT22;9179;50.968;3.134;2023-02-19T00:01:39;24.10;85.60
18105;DHT22;9179;50.968;3.134;2023-02-19T00:04:08;24.10;85.70
18105;DHT22;9179;50.968;3.134;2023-02-19T00:06:37;24.00;85.70
18105;DHT22;9179;50.968;3.134;2023-02-19T00:09:04;24.00;85.80
18105;DHT22;9179;50.968;3.134;2023-02-19T00:11:32;24.00;85.80
18105;DHT22;9179;50.968;3.134;2023-02-19T00:14:01;24.00;85.90
18105;DHT22;9179;50.968;3.134;2023-02-19T00:16:31;24.00;85.90
18105;DHT22;9179;50.968;3.134;2023-02-19T00:19:00;23.90;86.00
18105;DHT22;9179;50.968;3.134;2023-02-19T00:21:28;23.90;86.00
18105;DHT22;9179;50.968;3.134;2023-02-19T00:23:56;23.90;86.00
18105;DHT22;9179;50.968;3.134;2023-02-19T00:26:24;23.90;86.10
18105;DHT22;9179;50.968;3.134;2023-02-19T00:28:52;23.80;86.10
18105;DHT22;9179;50.968;3.134;2023-02-19T00:31:21;23.80;86.10
18105;DHT22;9179;50.968;3.134;2023-02-19T00:33:51;23.80;86.20
18105;DHT22;9179;50.968;3.134;2023-02-19T00:36:18;23.80;86.30
18105;DHT22;9179;50.968;3.134;2023-02-19T00:38:45;23.70;86.20
18105;DHT22;9179;50.968;3.134;2023-02-19T00:41:13;23.80;86.30
18105;DHT22;9179;50.968;3.134;2023-02-19T00:43:48;23.70;86.30
18105;DHT22;9179;50.968;3.134;2023-02-19T00:46:16;23.70;86.50
18105;DHT22;9179;50.968;3.134;2023-02-19T00:48:44;23.70;86.50
18105;DHT22;9179;50.968;3.134;2023-02-19T00:51:12;23.60;86.50
18105;DHT22;9179;50.968;3.134;2023-02-19T00:53:40;23.60;86.60
18105;DHT22;9179;50.968;3.134;2023-02-19T00:56:07;23.60;86.60
18105;DHT22;9179;50.968;3.134;2023-02-19T00:58:34;23.60;86.70
18105;DHT22;9179;50.968;3.134;2023-02-19T01:01:02;23.50;86.70
18105;DHT22;9179;50.968;3.134;2023-02-19T01:03:30;23.50;86.70
18105;DHT22;9179;50.968;3.134;2023-02-19T01:05:57;23.50;86.70
18105;DHT22;9179;50.968;3.134;2023-02-19T01:08:25;23.50;86.80
18105;DHT22;9179;50.968;3.134;2023-02-19T01:10:52;23.50;86.80
18105;DHT22;9179;50.968;3.134;2023-02-19T01:13:19;23.50;86.80
18105;DHT22;9179;50.968;3.134;2023-02-19T01:15:46;23.40;86.80
18105;DHT22;9179;50.968;3.134;2023-02-19T01:18:13;23.40;86.90
18105;DHT22;9179;50.968;3.134;2023-02-19T01:20:41;23.40;87.00
18105;DHT22;9179;50.968;3.134;2023-02-19T01:23:10;23.40;87.00
18105;DHT22;9179;50.968;3.134;2023-02-19T01:25:39;23.30;87.00
18105;DHT22;9179;50.968;3.134;2023-02-19T01:28:07;23.30;87.00
18105;DHT22;9179;50.968;3.134;2023-02-19T01:30:34;23.30;87.10
18105;DHT22;9179;50.968;3.134;2023-02-19T01:33:02;23.30;87.10
18105;DHT22;9179;50.968;3.134;2023-02-19T01:35:29;23.30;87.20
18105;DHT22;9179;50.968;3.134;2023-02-19T01:37:56;23.30;87.20
18105;DHT22;9179;50.968;3.134;2023-02-19T01:40:23;23.20;87.20
18105;DHT22;9179;50.968;3.134;2023-02-19T01:42:52;23.20;87.20
18105;DHT22;9179;50.968;3.134;2023-02-19T01:45:25;23.20;87.30
18105;DHT22;9179;50.968;3.134;2023-02-19T01:48:00;23.20;87.30
18105;DHT22;9179;50.968;3.134;2023-02-19T01:50:33;23.20;87.40
18105;DHT22;9179;50.968;3.134;2023-02-19T01:53:05;23.20;87.40
18105;DHT22;9179;50.968;3.134;2023-02-19T01:55:34;23.20;87.50
18105;DHT22;9179;50.968;3.134;2023-02-19T01:58:03;23.10;87.40
18105;DHT22;9179;50.968;3.134;2023-02-19T02:00:32;23.10;87.50
18105;DHT22;9179;50.968;3.134;2023-02-19T02:02:59;23.10;87.50
18105;DHT22;9179;50.968;3.134;2023-02-19T02:05:42;23.10;87.50
18105;DHT22;9179;50.968;3.134;2023-02-19T02:08:10;23.10;87.70
18105;DHT22;9179;50.968;3.134;2023-02-19T02:10:56;23.00;87.50
18105;DHT22;9179;50.968;3.134;2023-02-19T02:13:25;23.00;87.60
18105;DHT22;9179;50.968;3.134;2023-02-19T02:15:59;23.00;87.70
18105;DHT22;9179;50.968;3.134;2023-02-19T02:18:35;23.00;87.70
18105;DHT22;9179;50.968;3.134;2023-02-19T02:21:28;23.00;87.70
18105;DHT22;9179;50.968;3.134;2023-02-19T02:24:10;22.90;87.80
18105;DHT22;9179;50.968;3.134;2023-02-19T02:26:48;22.90;87.80
18105;DHT22;9179;50.968;3.134;2023-02-19T02:32:24;22.90;87.80
18105;DHT22;9179;50.968;3.134;2023-02-19T02:34:55;22.90;87.80
18105;DHT22;9179;50.968;3.134;2023-02-19T02:37:25;22.90;87.90
18105;DHT22;9179;50.968;3.134;2023-02-19T02:39:54;22.90;87.90
18105;DHT22;9179;50.968;3.134;2023-02-19T02:42:23;22.80;87.90
18105;DHT22;9179;50.968;3.134;2023-02-19T02:44:53;22.80;87.90
18105;DHT22;9179;50.968;3.134;2023-02-19T02:47:38;22.80;87.90
18105;DHT22;9179;50.968;3.134;2023-02-19T02:50:08;22.80;88.00
18105;DHT22;9179;50.968;3.134;2023-02-19T02:52:38;22.80;88.10
18105;DHT22;9179;50.968;3.134;2023-02-19T02:55:25;22.70;88.00
18105;DHT22;9179;50.968;3.134;2023-02-19T02:57:55;22.70;88.00
18105;DHT22;9179;50.968;3.134;2023-02-19T03:00:23;22.70;88.10
18105;DHT22;9179;50.968;3.134;2023-02-19T03:03:14;22.70;88.10
18105;DHT22;9179;50.968;3.134;2023-02-19T03:05:44;22.70;88.20
18105;DHT22;9179;50.968;3.134;2023-02-19T03:08:21;22.70;88.20
18105;DHT22;9179;50.968;3.134;2023-02-19T03:10:51;22.70;88.20
18105;DHT22;9179;50.968;3.134;2023-02-19T03:13:23;22.60;88.20
18105;DHT22;9179;50.968;3.134;2023-02-19T03:16:16;22.60;88.20
18105;DHT22;9179;50.968;3.134;2023-02-19T03:19:03;22.60;88.30
18105;DHT22;9179;50.968;3.134;2023-02-19T03:21:50;22.60;88.30
18105;DHT22;9179;50.968;3.134;2023-02-19T03:24:21;22.60;88.40
18105;DHT22;9179;50.968;3.134;2023-02-19T03:27:08;22.60;88.40
18105;DHT22;9179;50.968;3.134;2023-02-19T03:29:38;22.50;88.40
18105;DHT22;9179;50.968;3.134;2023-02-19T03:32:09;22.50;88.40
18105;DHT22;9179;50.968;3.134;2023-02-19T03:34:43;22.50;88.50
18105;DHT22;9179;50.968;3.134;2023-02-19T03:37:16;22.50;88.60
18105;DHT22;9179;50.968;3.134;2023-02-19T03:39:46;22.50;88.60
18105;DHT22;9179;50.968;3.134;2023-02-19T03:42:20;22.50;88.60
18105;DHT22;9179;50.968;3.134;2023-02-19T03:45:00;22.50;88.60
18105;DHT22;9179;50.968;3.134;2023-02-19T03:47:30;22.50;88.70
18105;DHT22;9179;50.968;3.134;2023-02-19T03:50:04;22.40;88.60
18105;DHT22;9179;50.968;3.134;2023-02-19T03:52:40;22.40;88.70
18105;DHT22;9179;50.968;3.134;2023-02-19T03:55:10;22.40;88.70
18105;DHT22;9179;50.968;3.134;2023-02-19T03:57:45;22.40;88.80
18105;DHT22;9179;50.968;3.134;2023-02-19T04:00:16;22.40;88.80
18105;DHT22;9179;50.968;3.134;2023-02-19T04:02:47;22.40;88.80
18105;DHT22;9179;50.968;3.134;2023-02-19T04:05:19;22.30;88.80
18105;DHT22;9179;50.968;3.134;2023-02-19T04:07:49;22.40;89.00
18105;DHT22;9179;50.968;3.134;2023-02-19T04:10:18;22.30;88.80
18105;DHT22;9179;50.968;3.134;2023-02-19T04:12:49;22.30;88.90
18105;DHT22;9179;50.968;3.134;2023-02-19T04:15:20;22.30;88.90
18105;DHT22;9179;50.968;3.134;2023-02-19T04:17:52;22.30;89.00
18105;DHT22;9179;50.968;3.134;2023-02-19T04:20:24;22.30;89.00
18105;DHT22;9179;50.968;3.134;2023-02-19T04:22:53;22.20;89.00
18105;DHT22;9179;50.968;3.134;2023-02-19T04:25:22;22.30;89.00
18105;DHT22;9179;50.968;3.134;2023-02-19T04:27:50;22.20;89.00
18105;DHT22;9179;50.968;3.134;2023-02-19T04:30:17;22.20;89.00
18105;DHT22;9179;50.968;3.134;2023-02-19T04:32:44;22.20;89.00
18105;DHT22;9179;50.968;3.134;2023-02-19T04:35:11;22.20;89.10
18105;DHT22;9179;50.968;3.134;2023-02-19T04:37:39;22.20;89.20
18105;DHT22;9179;50.968;3.134;2023-02-19T04:40:07;22.20;89.20
18105;DHT22;9179;50.968;3.134;2023-02-19T04:42:34;22.20;89.20
18105;DHT22;9179;50.968;3.134;2023-02-19T04:45:01;22.10;89.20
18105;DHT22;9179;50.968;3.134;2023-02-19T04:47:28;22.10;89.30
18105;DHT22;9179;50.968;3.134;2023-02-19T04:49:56;22.10;89.30
18105;DHT22;9179;50.968;3.134;2023-02-19T04:52:23;22.10;89.40
18105;DHT22;9179;50.968;3.134;2023-02-19T04:54:52;22.10;89.40
18105;DHT22;9179;50.968;3.134;2023-02-19T04:57:18;22.10;89.40
18105;DHT22;9179;50.968;3.134;2023-02-19T04:59:45;22.10;89.50
18105;DHT22;9179;50.968;3.134;2023-02-19T05:02:12;22.00;89.40
18105;DHT22;9179;50.968;3.134;2023-02-19T05:04:40;22.00;89.50
18105;DHT22;9179;50.968;3.134;2023-02-19T05:07:07;22.00;89.50
18105;DHT22;9179;50.968;3.134;2023-02-19T05:09:34;22.00;89.50
18105;DHT22;9179;50.968;3.134;2023-02-19T05:12:02;22.00;89.50
18105;DHT22;9179;50.968;3.134;2023-02-19T05:14:29;22.00;89.50
18105;DHT22;9179;50.968;3.134;2023-02-19T05:16:56;21.90;89.50
18105;DHT22;9179;50.968;3.134;2023-02-19T05:19:23;21.90;89.50
18105;DHT22;9179;50.968;3.134;2023-02-19T05:21:50;22.00;89.70
18105;DHT22;9179;50.968;3.134;2023-02-19T05:24:17;22.00;89.70
18105;DHT22;9179;50.968;3.134;2023-02-19T05:26:44;21.90;89.70
18105;DHT22;9179;50.968;3.134;2023-02-19T05:29:14;21.90;89.70
18105;DHT22;9179;50.968;3.134;2023-02-19T05:31:41;21.90;89.80
18105;DHT22;9179;50.968;3.134;2023-02-19T05:34:08;21.90;89.80
18105;DHT22;9179;50.968;3.134;2023-02-19T05:36:35;21.80;89.70
18105;DHT22;9179;50.968;3.134;2023-02-19T05:39:02;21.80;89.80
18105;DHT22;9179;50.968;3.134;2023-02-19T05:41:30;21.80;89.90
18105;DHT22;9179;50.968;3.134;2023-02-19T05:43:58;21.80;89.90
18105;DHT22;9179;50.968;3.134;2023-02-19T05:46:28;21.80;89.90
18105;DHT22;9179;50.968;3.134;2023-02-19T05:48:55;21.80;90.00
18105;DHT22;9179;50.968;3.134;2023-02-19T05:51:23;21.80;90.00
18105;DHT22;9179;50.968;3.134;2023-02-19T05:53:51;21.80;90.00
18105;DHT22;9179;50.968;3.134;2023-02-19T05:56:36;21.80;90.00
18105;DHT22;9179;50.968;3.134;2023-02-19T05:59:06;21.80;90.00
18105;DHT22;9179;50.968;3.134;2023-02-19T06:01:34;21.70;90.00
18105;DHT22;9179;50.968;3.134;2023-02-19T06:04:02;21.70;90.00
18105;DHT22;9179;50.968;3.134;2023-02-19T06:06:29;21.70;90.20
18105;DHT22;9179;50.968;3.134;2023-02-19T06:08:56;21.70;90.40
18105;DHT22;9179;50.968;3.134;2023-02-19T06:11:23;21.80;90.60
18105;DHT22;9179;50.968;3.134;2023-02-19T06:13:50;22.10;90.60
18105;DHT22;9179;50.968;3.134;2023-02-19T06:16:17;22.30;90.60
18105;DHT22;9179;50.968;3.134;2023-02-19T06:18:47;22.60;90.50
18105;DHT22;9179;50.968;3.134;2023-02-19T06:21:15;22.90;90.30
18105;DHT22;9179;50.968;3.134;2023-02-19T06:23:43;23.20;90.10
18105;DHT22;9179;50.968;3.134;2023-02-19T06:26:12;23.40;89.70
18105;DHT22;9179;50.968;3.134;2023-02-19T06:28:39;23.60;89.10
18105;DHT22;9179;50.968;3.134;2023-02-19T06:31:08;23.80;88.70
18105;DHT22;9179;50.968;3.134;2023-02-19T06:33:35;24.00;88.40
18105;DHT22;9179;50.968;3.134;2023-02-19T06:36:09;24.10;87.90
18105;DHT22;9179;50.968;3.134;2023-02-19T06:38:37;24.30;87.50
18105;DHT22;9179;50.968;3.134;2023-02-19T06:41:05;24.40;87.10
18105;DHT22;9179;50.968;3.134;2023-02-19T06:43:33;24.50;86.70
18105;DHT22;9179;50.968;3.134;2023-02-19T06:46:01;24.50;86.30
18105;DHT22;9179;50.968;3.134;2023-02-19T06:48:29;24.70;86.00
18105;DHT22;9179;50.968;3.134;2023-02-19T06:50:56;24.70;85.80
18105;DHT22;9179;50.968;3.134;2023-02-19T06:53:25;24.80;85.70
18105;DHT22;9179;50.968;3.134;2023-02-19T06:55:56;24.80;86.20
18105;DHT22;9179;50.968;3.134;2023-02-19T06:58:23;24.90;86.30
18105;DHT22;9179;50.968;3.134;2023-02-19T07:00:50;24.90;86.30
18105;DHT22;9179;50.968;3.134;2023-02-19T07:03:17;25.00;86.40
18105;DHT22;9179;50.968;3.134;2023-02-19T07:05:44;25.00;86.30
18105;DHT22;9179;50.968;3.134;2023-02-19T07:08:11;25.00;86.00
18105;DHT22;9179;50.968;3.134;2023-02-19T07:10:39;25.00;85.40
18105;DHT22;9179;50.968;3.134;2023-02-19T07:13:06;24.90;85.20
18105;DHT22;9179;50.968;3.134;2023-02-19T07:15:33;24.90;85.30
18105;DHT22;9179;50.968;3.134;2023-02-19T07:18:00;24.80;85.20
18105;DHT22;9179;50.968;3.134;2023-02-19T07:20:29;24.80;85.20
18105;DHT22;9179;50.968;3.134;2023-02-19T07:22:56;24.80;85.10
18105;DHT22;9179;50.968;3.134;2023-02-19T07:25:23;24.80;85.00
18105;DHT22;9179;50.968;3.134;2023-02-19T07:27:51;24.70;85.20
18105;DHT22;9179;50.968;3.134;2023-02-19T07:30:19;24.70;85.50
18105;DHT22;9179;50.968;3.134;2023-02-19T07:32:45;24.60;85.80
18105;DHT22;9179;50.968;3.134;2023-02-19T07:35:12;24.60;85.40
18105;DHT22;9179;50.968;3.134;2023-02-19T07:37:40;24.60;84.90
18105;DHT22;9179;50.968;3.134;2023-02-19T07:40:07;24.50;85.00
18105;DHT22;9179;50.968;3.134;2023-02-19T07:42:34;24.50;85.40
18105;DHT22;9179;50.968;3.134;2023-02-19T07:45:03;24.40;85.70
18105;DHT22;9179;50.968;3.134;2023-02-19T07:47:30;24.50;86.30
18105;DHT22;9179;50.968;3.134;2023-02-19T07:49:57;24.50;86.60
18105;DHT22;9179;50.968;3.134;2023-02-19T07:52:24;24.70;87.70
18105;DHT22;9179;50.968;3.134;2023-02-19T07:54:51;24.70;87.00
18105;DHT22;9179;50.968;3.134;2023-02-19T07:57:18;24.90;87.10
18105;DHT22;9179;50.968;3.134;2023-02-19T07:59:45;25.00;87.00
18105;DHT22;9179;50.968;3.134;2023-02-19T08:02:16;25.10;87.00
18105;DHT22;9179;50.968;3.134;2023-02-19T08:05:01;25.30;86.90
18105;DHT22;9179;50.968;3.134;2023-02-19T08:07:30;25.40;87.20
18105;DHT22;9179;50.968;3.134;2023-02-19T08:09:58;25.60;87.00
18105;DHT22;9179;50.968;3.134;2023-02-19T08:12:38;25.70;86.90
18105;DHT22;9179;50.968;3.134;2023-02-19T08:15:23;25.80;86.80
18105;DHT22;9179;50.968;3.134;2023-02-19T08:17:51;25.90;86.60
18105;DHT22;9179;50.968;3.134;2023-02-19T08:20:18;26.00;86.70
18105;DHT22;9179;50.968;3.134;2023-02-19T08:22:45;26.00;86.50
18105;DHT22;9179;50.968;3.134;2023-02-19T08:25:12;26.00;86.50
18105;DHT22;9179;50.968;3.134;2023-02-19T08:27:39;26.00;86.40
18105;DHT22;9179;50.968;3.134;2023-02-19T08:30:07;26.00;86.40
18105;DHT22;9179;50.968;3.134;2023-02-19T08:32:34;25.90;86.50
18105;DHT22;9179;50.968;3.134;2023-02-19T08:35:03;26.00;86.80
18105;DHT22;9179;50.968;3.134;2023-02-19T08:37:30;25.90;86.90
18105;DHT22;9179;50.968;3.134;2023-02-19T08:39:57;25.90;86.80
18105;DHT22;9179;50.968;3.134;2023-02-19T08:42:24;25.90;86.80
18105;DHT22;9179;50.968;3.134;2023-02-19T08:44:51;25.90;85.90
18105;DHT22;9179;50.968;3.134;2023-02-19T08:47:18;25.80;85.70
18105;DHT22;9179;50.968;3.134;2023-02-19T08:49:45;25.80;85.80
18105;DHT22;9179;50.968;3.134;2023-02-19T08:52:24;25.70;85.90
18105;DHT22;9179;50.968;3.134;2023-02-19T08:54:54;25.60;85.90
18105;DHT22;9179;50.968;3.134;2023-02-19T08:57:21;25.50;85.90
18105;DHT22;9179;50.968;3.134;2023-02-19T08:59:48;25.50;86.00
18105;DHT22;9179;50.968;3.134;2023-02-19T09:02:15;25.50;86.10
18105;DHT22;9179;50.968;3.134;2023-02-19T09:04:42;25.50;86.30
18105;DHT22;9179;50.968;3.134;2023-02-19T09:07:09;25.40;86.30
18105;DHT22;9179;50.968;3.134;2023-02-19T09:09:39;25.30;86.50
18105;DHT22;9179;50.968;3.134;2023-02-19T09:12:08;25.30;86.60
18105;DHT22;9179;50.968;3.134;2023-02-19T09:14:36;25.30;86.60
18105;DHT22;9179;50.968;3.134;2023-02-19T09:17:04;25.20;86.60
18105;DHT22;9179;50.968;3.134;2023-02-19T09:19:32;25.20;86.80
18105;DHT22;9179;50.968;3.134;2023-02-19T09:21:59;25.10;86.80
18105;DHT22;9179;50.968;3.134;2023-02-19T09:24:26;25.10;86.90
18105;DHT22;9179;50.968;3.134;2023-02-19T09:26:54;25.00;87.10
18105;DHT22;9179;50.968;3.134;2023-02-19T09:29:23;25.00;87.30
18105;DHT22;9179;50.968;3.134;2023-02-19T09:31:54;24.90;87.20
18105;DHT22;9179;50.968;3.134;2023-02-19T09:34:23;24.90;87.30
18105;DHT22;9179;50.968;3.134;2023-02-19T09:36:50;24.90;87.30
18105;DHT22;9179;50.968;3.134;2023-02-19T09:39:20;24.80;87.20
18105;DHT22;9179;50.968;3.134;2023-02-19T09:41:49;24.80;87.20
18105;DHT22;9179;50.968;3.134;2023-02-19T09:44:23;24.70;87.30
18105;DHT22;9179;50.968;3.134;2023-02-19T09:46:52;24.70;87.60
18105;DHT22;9179;50.968;3.134;2023-02-19T09:49:22;24.80;87.70
18105;DHT22;9179;50.968;3.134;2023-02-19T09:51:52;24.80;87.70
18105;DHT22;9179;50.968;3.134;2023-02-19T09:54:22;24.90;87.80
18105;DHT22;9179;50.968;3.134;2023-02-19T09:56:50;25.00;87.80
18105;DHT22;9179;50.968;3.134;2023-02-19T09:59:22;25.30;87.80
18105;DHT22;9179;50.968;3.134;2023-02-19T10:01:56;25.50;87.60
18105;DHT22;9179;50.968;3.134;2023-02-19T10:04:26;25.70;87.20
18105;DHT22;9179;50.968;3.134;2023-02-19T10:06:53;25.80;86.90
18105;DHT22;9179;50.968;3.134;2023-02-19T10:09:24;26.00;86.60
18105;DHT22;9179;50.968;3.134;2023-02-19T10:11:54;26.20;86.30
18105;DHT22;9179;50.968;3.134;2023-02-19T10:14:30;26.20;85.80
18105;DHT22;9179;50.968;3.134;2023-02-19T10:17:03;26.30;85.50
18105;DHT22;9179;50.968;3.134;2023-02-19T10:19:30;26.40;85.40
18105;DHT22;9179;50.968;3.134;2023-02-19T10:21:58;26.50;85.10
18105;DHT22;9179;50.968;3.134;2023-02-19T10:24:27;26.50;84.80
18105;DHT22;9179;50.968;3.134;2023-02-19T10:26:55;26.50;84.50
18105;DHT22;9179;50.968;3.134;2023-02-19T10:29:23;26.50;84.30
18105;DHT22;9179;50.968;3.134;2023-02-19T10:32:13;26.50;84.10
18105;DHT22;9179;50.968;3.134;2023-02-19T10:34:41;26.50;84.60
18105;DHT22;9179;50.968;3.134;2023-02-19T10:37:11;26.50;83.70
18105;DHT22;9179;50.968;3.134;2023-02-19T10:39:41;26.40;83.50
18105;DHT22;9179;50.968;3.134;2023-02-19T10:42:17;26.40;83.50
18105;DHT22;9179;50.968;3.134;2023-02-19T10:44:49;26.40;83.30
18105;DHT22;9179;50.968;3.134;2023-02-19T10:47:20;26.40;83.40
18105;DHT22;9179;50.968;3.134;2023-02-19T10:49:49;26.40;83.30
18105;DHT22;9179;50.968;3.134;2023-02-19T10:52:19;26.50;83.30
18105;DHT22;9179;50.968;3.134;2023-02-19T10:54:50;26.50;83.10
18105;DHT22;9179;50.968;3.134;2023-02-19T10:57:27;26.50;83.00
18105;DHT22;9179;50.968;3.134;2023-02-19T11:00:05;26.50;83.00
18105;DHT22;9179;50.968;3.134;2023-02-19T11:02:44;26.50;83.10
18105;DHT22;9179;50.968;3.134;2023-02-19T11:05:17;26.60;83.10
18105;DHT22;9179;50.968;3.134;2023-02-19T11:07:46;26.50;82.70
18105;DHT22;9179;50.968;3.134;2023-02-19T11:10:26;26.50;82.70
18105;DHT22;9179;50.968;3.134;2023-02-19T11:12:56;26.50;83.50
18105;DHT22;9179;50.968;3.134;2023-02-19T11:15:28;26.40;82.80
18105;DHT22;9179;50.968;3.134;2023-02-19T11:17:57;26.40;83.00
18105;DHT22;9179;50.968;3.134;2023-02-19T11:20:25;26.40;83.50
18105;DHT22;9179;50.968;3.134;2023-02-19T11:22:58;26.40;83.90
18105;DHT22;9179;50.968;3.134;2023-02-19T11:25:27;26.40;84.30
18105;DHT22;9179;50.968;3.134;2023-02-19T11:27:56;26.50;84.50
18105;DHT22;9179;50.968;3.134;2023-02-19T11:30:35;26.60;84.50
18105;DHT22;9179;50.968;3.134;2023-02-19T11:33:22;26.80;84.50
18105;DHT22;9179;50.968;3.134;2023-02-19T11:35:52;27.00;84.30
18105;DHT22;9179;50.968;3.134;2023-02-19T11:38:21;27.20;84.20
18105;DHT22;9179;50.968;3.134;2023-02-19T11:40:53;27.40;83.90
18105;DHT22;9179;50.968;3.134;2023-02-19T11:43:46;27.60;83.50
18105;DHT22;9179;50.968;3.134;2023-02-19T11:46:21;27.70;82.80
18105;DHT22;9179;50.968;3.134;2023-02-19T11:49:04;27.90;82.60
18105;DHT22;9179;50.968;3.134;2023-02-19T11:54:40;28.10;81.70
18105;DHT22;9179;50.968;3.134;2023-02-19T11:57:24;28.20;81.60
18105;DHT22;9179;50.968;3.134;2023-02-19T12:00:01;28.20;81.70
18105;DHT22;9179;50.968;3.134;2023-02-19T12:02:52;28.30;81.30
18105;DHT22;9179;50.968;3.134;2023-02-19T12:05:33;28.30;81.20
18105;DHT22;9179;50.968;3.134;2023-02-19T12:11:22;28.30;80.90
18105;DHT22;9179;50.968;3.134;2023-02-19T12:14:08;28.30;80.90
18105;DHT22;9179;50.968;3.134;2023-02-19T12:16:44;28.30;80.70
18105;DHT22;9179;50.968;3.134;2023-02-19T12:19:30;28.30;80.50
18105;DHT22;9179;50.968;3.134;2023-02-19T12:22:17;28.20;80.10
18105;DHT22;9179;50.968;3.134;2023-02-19T12:27:57;28.20;80.10
18105;DHT22;9179;50.968;3.134;2023-02-19T12:30:51;28.20;80.20
18105;DHT22;9179;50.968;3.134;2023-02-19T12:33:48;28.20;80.10
18105;DHT22;9179;50.968;3.134;2023-02-19T12:36:25;28.10;80.00
18105;DHT22;9179;50.968;3.134;2023-02-19T12:39:01;28.00;79.70
18105;DHT22;9179;50.968;3.134;2023-02-19T12:41:36;27.90;79.50
18105;DHT22;9179;50.968;3.134;2023-02-19T12:44:08;27.80;79.30
18105;DHT22;9179;50.968;3.134;2023-02-19T12:46:39;27.70;79.20
18105;DHT22;9179;50.968;3.134;2023-02-19T12:49:11;27.60;79.10
18105;DHT22;9179;50.968;3.134;2023-02-19T12:51:44;27.50;79.00
18105;DHT22;9179;50.968;3.134;2023-02-19T12:54:17;27.50;79.00
18105;DHT22;9179;50.968;3.134;2023-02-19T12:56:48;27.40;78.90
18105;DHT22;9179;50.968;3.134;2023-02-19T12:59:21;27.30;78.90
18105;DHT22;9179;50.968;3.134;2023-02-19T13:01:54;27.30;73.10
18105;DHT22;9179;50.968;3.134;2023-02-19T13:04:28;26.90;70.00
18105;DHT22;9179;50.968;3.134;2023-02-19T13:07:03;26.60;68.60
18105;DHT22;9179;50.968;3.134;2023-02-19T13:09:34;26.50;68.60
18105;DHT22;9179;50.968;3.134;2023-02-19T13:12:05;26.50;68.70
18105;DHT22;9179;50.968;3.134;2023-02-19T13:14:36;26.50;69.00
18105;DHT22;9179;50.968;3.134;2023-02-19T13:17:11;26.50;69.30
18105;DHT22;9179;50.968;3.134;2023-02-19T13:19:44;26.60;69.20
18105;DHT22;9179;50.968;3.134;2023-02-19T13:22:20;26.70;69.40
18105;DHT22;9179;50.968;3.134;2023-02-19T13:25:07;26.80;69.50
18105;DHT22;9179;50.968;3.134;2023-02-19T13:27:58;26.90;69.70
18105;DHT22;9179;50.968;3.134;2023-02-19T13:30:36;27.10;69.70
18105;DHT22;9179;50.968;3.134;2023-02-19T13:33:20;27.30;69.80
18105;DHT22;9179;50.968;3.134;2023-02-19T13:36:08;27.40;69.50
18105;DHT22;9179;50.968;3.134;2023-02-19T13:38:39;27.50;69.60
18105;DHT22;9179;50.968;3.134;2023-02-19T13:41:17;27.50;69.60
18105;DHT22;9179;50.968;3.134;2023-02-19T13:43:45;27.50;69.60
18105;DHT22;9179;50.968;3.134;2023-02-19T13:46:19;27.60;70.00
18105;DHT22;9179;50.968;3.134;2023-02-19T13:48:46;27.50;70.00
18105;DHT22;9179;50.968;3.134;2023-02-19T13:51:43;27.50;70.20
18105;DHT22;9179;50.968;3.134;2023-02-19T13:54:22;27.50;70.40
18105;DHT22;9179;50.968;3.134;2023-02-19T13:57:24;27.40;70.50
18105;DHT22;9179;50.968;3.134;2023-02-19T13:59:53;27.30;70.60
18105;DHT22;9179;50.968;3.134;2023-02-19T14:02:27;27.40;70.90
18105;DHT22;9179;50.968;3.134;2023-02-19T14:04:56;27.30;71.10
18105;DHT22;9179;50.968;3.134;2023-02-19T14:07:49;27.20;71.20
18105;DHT22;9179;50.968;3.134;2023-02-19T14:10:52;27.20;71.30
18105;DHT22;9179;50.968;3.134;2023-02-19T14:13:55;27.20;71.50
18105;DHT22;9179;50.968;3.134;2023-02-19T14:19:44;27.10;72.00
18105;DHT22;9179;50.968;3.134;2023-02-19T14:25:39;27.00;72.50
18105;DHT22;9179;50.968;3.134;2023-02-19T14:28:21;27.00;72.80
18105;DHT22;9179;50.968;3.134;2023-02-19T14:30:52;26.90;72.90
18105;DHT22;9179;50.968;3.134;2023-02-19T14:33:21;26.90;73.10
18105;DHT22;9179;50.968;3.134;2023-02-19T14:35:52;26.90;73.40
18105;DHT22;9179;50.968;3.134;2023-02-19T14:38:23;26.80;73.60
18105;DHT22;9179;50.968;3.134;2023-02-19T14:40:51;26.80;74.00
18105;DHT22;9179;50.968;3.134;2023-02-19T14:43:23;26.80;74.10
18105;DHT22;9179;50.968;3.134;2023-02-19T14:45:54;26.70;74.40
18105;DHT22;9179;50.968;3.134;2023-02-19T14:48:25;26.70;74.50
18105;DHT22;9179;50.968;3.134;2023-02-19T14:50:57;26.70;74.70
18105;DHT22;9179;50.968;3.134;2023-02-19T14:53:28;26.60;74.80
18105;DHT22;9179;50.968;3.134;2023-02-19T14:55:55;26.60;75.10
18105;DHT22;9179;50.968;3.134;2023-02-19T14:58:30;26.50;75.10
18105;DHT22;9179;50.968;3.134;2023-02-19T15:00:57;26.50;75.40
18105;DHT22;9179;50.968;3.134;2023-02-19T15:03:28;26.50;75.60
18105;DHT22;9179;50.968;3.134;2023-02-19T15:05:59;26.50;75.70
18105;DHT22;9179;50.968;3.134;2023-02-19T15:08:33;26.40;75.80
18105;DHT22;9179;50.968;3.134;2023-02-19T15:11:03;26.40;75.90
18105;DHT22;9179;50.968;3.134;2023-02-19T15:13:35;26.40;76.10
18105;DHT22;9179;50.968;3.134;2023-02-19T15:16:02;26.30;76.20
18105;DHT22;9179;50.968;3.134;2023-02-19T15:18:30;26.30;76.30
18105;DHT22;9179;50.968;3.134;2023-02-19T15:21:02;26.20;76.10
18105;DHT22;9179;50.968;3.134;2023-02-19T15:23:31;26.20;76.20
18105;DHT22;9179;50.968;3.134;2023-02-19T15:26:00;26.10;76.10
18105;DHT22;9179;50.968;3.134;2023-02-19T15:28:32;26.10;75.90
18105;DHT22;9179;50.968;3.134;2023-02-19T15:31:13;26.10;75.80
18105;DHT22;9179;50.968;3.134;2023-02-19T15:33:50;26.00;75.70
18105;DHT22;9179;50.968;3.134;2023-02-19T15:36:24;25.90;75.90
18105;DHT22;9179;50.968;3.134;2023-02-19T15:38:54;25.90;75.90
18105;DHT22;9179;50.968;3.134;2023-02-19T15:41:23;25.90;76.00
18105;DHT22;9179;50.968;3.134;2023-02-19T15:43:58;25.80;76.00
18105;DHT22;9179;50.968;3.134;2023-02-19T15:46:27;25.80;76.30
18105;DHT22;9179;50.968;3.134;2023-02-19T15:48:59;25.80;76.50
18105;DHT22;9179;50.968;3.134;2023-02-19T15:51:32;25.70;77.70
18105;DHT22;9179;50.968;3.134;2023-02-19T15:54:07;25.70;78.80
18105;DHT22;9179;50.968;3.134;2023-02-19T15:56:40;25.70;79.40
18105;DHT22;9179;50.968;3.134;2023-02-19T15:59:18;25.70;80.00
18105;DHT22;9179;50.968;3.134;2023-02-19T16:01:48;25.60;79.70
18105;DHT22;9179;50.968;3.134;2023-02-19T16:04:17;25.70;79.30
18105;DHT22;9179;50.968;3.134;2023-02-19T16:06:56;25.60;78.90
18105;DHT22;9179;50.968;3.134;2023-02-19T16:09:28;25.60;78.30
18105;DHT22;9179;50.968;3.134;2023-02-19T16:11:57;25.60;77.90
18105;DHT22;9179;50.968;3.134;2023-02-19T16:14:30;25.60;77.70
18105;DHT22;9179;50.968;3.134;2023-02-19T16:17:03;25.50;77.70
18105;DHT22;9179;50.968;3.134;2023-02-19T16:19:41;25.50;77.70
18105;DHT22;9179;50.968;3.134;2023-02-19T16:22:09;25.50;77.70
18105;DHT22;9179;50.968;3.134;2023-02-19T16:24:41;25.50;77.70
18105;DHT22;9179;50.968;3.134;2023-02-19T16:27:10;25.50;77.90
18105;DHT22;9179;50.968;3.134;2023-02-19T16:29:38;25.50;77.90
18105;DHT22;9179;50.968;3.134;2023-02-19T16:32:15;25.40;77.80